Paynes, Mississippi
Current Conditions -  °F | °C
As of 5:53 PM on Wednesday 22 Oct 2014 (Local Time) from KGWO Reporting Station
Clear Clear  
Wind Chill: 66°   Ceiling: Unl
Heat Index: 66°   Visibility: 10mi
Dew Point: 44°   Wind: 7mph
Humidity: 45%   Direction: 50°NE
Pressure: 30.13"   Gusts: NA
Location:  33.8947°N, 90.0323°W
Report Text: KGWO 222253Z AUTO 05006KT 10SM CLR 19/07 A3013 RMK AO2 SLP203 T01890067 TSNO
Loading
Personal Weather Stations






























Interactive Weather Map
Tropical Storm Tracking
New forecast layout! Learn more

10-Day Weather Forecast

Advertisements
Track Severe Weather on mobile